sensor_id;sensor_type;location;lat;lon;timestamp;P1;durP1;ratioP1;P2;durP2;ratioP2
4078;SDS011;2054;47.858;11.156;2023-09-18T02:45:33;6.88;;;5.85;;
4078;SDS011;2054;47.858;11.156;2023-09-18T02:48:00;9.05;;;6.43;;
4078;SDS011;2054;47.858;11.156;2023-09-18T02:50:27;8.18;;;6.40;;
4078;SDS011;2054;47.858;11.156;2023-09-18T02:52:53;10.05;;;5.97;;
4078;SDS011;2054;47.858;11.156;2023-09-18T02:55:20;7.32;;;6.15;;
4078;SDS011;2054;47.858;11.156;2023-09-18T02:57:47;7.13;;;5.68;;
4078;SDS011;2054;47.858;11.156;2023-09-18T03:00:14;8.35;;;5.60;;
4078;SDS011;2054;47.858;11.156;2023-09-18T03:02:43;7.60;;;5.32;;
4078;SDS011;2054;47.858;11.156;2023-09-18T03:05:10;8.45;;;5.85;;
4078;SDS011;2054;47.858;11.156;2023-09-18T03:07:37;10.30;;;5.47;;
4078;SDS011;2054;47.858;11.156;2023-09-18T03:10:04;9.25;;;5.90;;
4078;SDS011;2054;47.858;11.156;2023-09-18T03:12:32;8.80;;;6.40;;
4078;SDS011;2054;47.858;11.156;2023-09-18T03:14:59;7.07;;;5.88;;
4078;SDS011;2054;47.858;11.156;2023-09-18T03:17:26;8.40;;;5.95;;
4078;SDS011;2054;47.858;11.156;2023-09-18T03:19:54;10.68;;;5.63;;
4078;SDS011;2054;47.858;11.156;2023-09-18T03:22:21;8.43;;;5.75;;
4078;SDS011;2054;47.858;11.156;2023-09-18T03:24:48;7.80;;;5.88;;
4078;SDS011;2054;47.858;11.156;2023-09-18T03:27:15;9.38;;;5.60;;
4078;SDS011;2054;47.858;11.156;2023-09-18T03:29:42;8.48;;;5.88;;
4078;SDS011;2054;47.858;11.156;2023-09-18T03:32:08;11.43;;;6.38;;
4078;SDS011;2054;47.858;11.156;2023-09-18T03:34:37;9.27;;;6.20;;
4078;SDS011;2054;47.858;11.156;2023-09-18T03:37:05;9.25;;;5.97;;
4078;SDS011;2054;47.858;11.156;2023-09-18T03:39:32;7.80;;;5.70;;
4078;SDS011;2054;47.858;11.156;2023-09-18T03:41:59;6.65;;;5.82;;
4078;SDS011;2054;47.858;11.156;2023-09-18T03:44:26;8.00;;;5.15;;
4078;SDS011;2054;47.858;11.156;2023-09-18T03:46:53;7.88;;;5.65;;
4078;SDS011;2054;47.858;11.156;2023-09-18T03:49:20;7.32;;;5.25;;
4078;SDS011;2054;47.858;11.156;2023-09-18T03:51:47;8.20;;;5.55;;
4078;SDS011;2054;47.858;11.156;2023-09-18T03:54:15;6.75;;;4.80;;
4078;SDS011;2054;47.858;11.156;2023-09-18T03:56:42;7.90;;;5.22;;
4078;SDS011;2054;47.858;11.156;2023-09-18T03:59:09;9.23;;;5.68;;
4078;SDS011;2054;47.858;11.156;2023-09-18T04:01:35;7.57;;;5.88;;
4078;SDS011;2054;47.858;11.156;2023-09-18T04:04:02;10.77;;;6.15;;
4078;SDS011;2054;47.858;11.156;2023-09-18T04:06:35;8.93;;;5.63;;
4078;SDS011;2054;47.858;11.156;2023-09-18T04:09:03;9.23;;;6.35;;
4078;SDS011;2054;47.858;11.156;2023-09-18T04:11:31;10.25;;;6.53;;
4078;SDS011;2054;47.858;11.156;2023-09-18T04:13:58;8.45;;;6.20;;
4078;SDS011;2054;47.858;11.156;2023-09-18T04:16:25;10.05;;;5.78;;
4078;SDS011;2054;47.858;11.156;2023-09-18T04:18:52;9.57;;;6.13;;
4078;SDS011;2054;47.858;11.156;2023-09-18T04:21:19;11.65;;;6.60;;
4078;SDS011;2054;47.858;11.156;2023-09-18T04:23:47;10.88;;;6.80;;
4078;SDS011;2054;47.858;11.156;2023-09-18T04:26:20;12.70;;;5.78;;
4078;SDS011;2054;47.858;11.156;2023-09-18T04:28:49;6.82;;;5.97;;
4078;SDS011;2054;47.858;11.156;2023-09-18T04:31:15;13.68;;;6.10;;
4078;SDS011;2054;47.858;11.156;2023-09-18T04:33:42;10.10;;;6.20;;
4078;SDS011;2054;47.858;11.156;2023-09-18T04:36:10;9.00;;;5.57;;
4078;SDS011;2054;47.858;11.156;2023-09-18T04:38:39;7.47;;;5.65;;
4078;SDS011;2054;47.858;11.156;2023-09-18T04:41:06;9.52;;;5.40;;
4078;SDS011;2054;47.858;11.156;2023-09-18T04:43:34;10.05;;;5.88;;
4078;SDS011;2054;47.858;11.156;2023-09-18T04:46:02;8.90;;;5.55;;
4078;SDS011;2054;47.858;11.156;2023-09-18T04:48:30;9.20;;;5.63;;
4078;SDS011;2054;47.858;11.156;2023-09-18T04:50:57;7.90;;;4.95;;
4078;SDS011;2054;47.858;11.156;2023-09-18T04:53:24;6.35;;;4.72;;
4078;SDS011;2054;47.858;11.156;2023-09-18T04:55:51;10.18;;;5.97;;
4078;SDS011;2054;47.858;11.156;2023-09-18T04:58:19;9.18;;;5.40;;
4078;SDS011;2054;47.858;11.156;2023-09-18T05:00:47;9.18;;;5.38;;
4078;SDS011;2054;47.858;11.156;2023-09-18T05:03:21;6.40;;;5.40;;
4078;SDS011;2054;47.858;11.156;2023-09-18T05:05:48;8.00;;;5.30;;
4078;SDS011;2054;47.858;11.156;2023-09-18T05:08:15;7.78;;;4.90;;
4078;SDS011;2054;47.858;11.156;2023-09-18T05:10:43;9.90;;;5.15;;
4078;SDS011;2054;47.858;11.156;2023-09-18T05:13:10;6.82;;;4.88;;
4078;SDS011;2054;47.858;11.156;2023-09-18T05:15:38;11.15;;;5.57;;
4078;SDS011;2054;47.858;11.156;2023-09-18T05:18:05;9.32;;;4.95;;
4078;SDS011;2054;47.858;11.156;2023-09-18T05:20:34;11.20;;;5.63;;
4078;SDS011;2054;47.858;11.156;2023-09-18T05:23:01;9.07;;;5.50;;
4078;SDS011;2054;47.858;11.156;2023-09-18T05:25:28;11.18;;;5.35;;
4078;SDS011;2054;47.858;11.156;2023-09-18T05:27:57;9.52;;;4.82;;
4078;SDS011;2054;47.858;11.156;2023-09-18T05:30:25;11.20;;;5.25;;
4078;SDS011;2054;47.858;11.156;2023-09-18T05:32:54;10.48;;;5.50;;
4078;SDS011;2054;47.858;11.156;2023-09-18T05:35:21;9.27;;;5.55;;
4078;SDS011;2054;47.858;11.156;2023-09-18T05:37:50;9.55;;;5.38;;
4078;SDS011;2054;47.858;11.156;2023-09-18T05:40:19;8.63;;;5.40;;
4078;SDS011;2054;47.858;11.156;2023-09-18T05:42:46;8.52;;;5.00;;
4078;SDS011;2054;47.858;11.156;2023-09-18T05:45:14;7.68;;;5.90;;
4078;SDS011;2054;47.858;11.156;2023-09-18T05:47:41;11.27;;;5.57;;
4078;SDS011;2054;47.858;11.156;2023-09-18T05:50:08;8.43;;;5.25;;
4078;SDS011;2054;47.858;11.156;2023-09-18T05:52:40;10.45;;;6.07;;
4078;SDS011;2054;47.858;11.156;2023-09-18T05:55:08;9.05;;;5.15;;
4078;SDS011;2054;47.858;11.156;2023-09-18T05:57:35;8.18;;;4.90;;
4078;SDS011;2054;47.858;11.156;2023-09-18T06:00:03;13.25;;;5.40;;
4078;SDS011;2054;47.858;11.156;2023-09-18T06:02:31;7.35;;;4.72;;
4078;SDS011;2054;47.858;11.156;2023-09-18T06:04:58;7.65;;;4.63;;
4078;SDS011;2054;47.858;11.156;2023-09-18T06:07:26;10.63;;;4.82;;
4078;SDS011;2054;47.858;11.156;2023-09-18T06:09:53;12.25;;;4.57;;
4078;SDS011;2054;47.858;11.156;2023-09-18T06:12:23;6.80;;;4.78;;
4078;SDS011;2054;47.858;11.156;2023-09-18T06:14:51;8.80;;;4.82;;
4078;SDS011;2054;47.858;11.156;2023-09-18T06:17:18;15.23;;;5.00;;
4078;SDS011;2054;47.858;11.156;2023-09-18T06:19:45;9.57;;;4.82;;
4078;SDS011;2054;47.858;11.156;2023-09-18T06:22:12;7.45;;;5.03;;
4078;SDS011;2054;47.858;11.156;2023-09-18T06:24:40;7.13;;;4.38;;
4078;SDS011;2054;47.858;11.156;2023-09-18T06:27:07;6.32;;;4.78;;
4078;SDS011;2054;47.858;11.156;2023-09-18T06:29:35;8.80;;;4.63;;
4078;SDS011;2054;47.858;11.156;2023-09-18T06:32:04;7.90;;;4.32;;
4078;SDS011;2054;47.858;11.156;2023-09-18T06:34:32;6.75;;;4.20;;
4078;SDS011;2054;47.858;11.156;2023-09-18T06:36:59;8.02;;;4.63;;
4078;SDS011;2054;47.858;11.156;2023-09-18T06:39:26;5.70;;;4.55;;
4078;SDS011;2054;47.858;11.156;2023-09-18T06:41:53;7.45;;;5.25;;
4078;SDS011;2054;47.858;11.156;2023-09-18T06:44:20;8.65;;;4.78;;
4078;SDS011;2054;47.858;11.156;2023-09-18T06:46:49;7.00;;;4.72;;
4078;SDS011;2054;47.858;11.156;2023-09-18T06:49:17;6.65;;;5.05;;
4078;SDS011;2054;47.858;11.156;2023-09-18T06:51:44;10.52;;;5.22;;
4078;SDS011;2054;47.858;11.156;2023-09-18T06:54:11;9.90;;;4.95;;
4078;SDS011;2054;47.858;11.156;2023-09-18T06:56:38;7.75;;;4.47;;
4078;SDS011;2054;47.858;11.156;2023-09-18T06:59:06;9.25;;;5.00;;
4078;SDS011;2054;47.858;11.156;2023-09-18T07:01:33;10.32;;;5.10;;
4078;SDS011;2054;47.858;11.156;2023-09-18T07:04:01;10.05;;;5.05;;
4078;SDS011;2054;47.858;11.156;2023-09-18T07:06:29;8.38;;;5.43;;
4078;SDS011;2054;47.858;11.156;2023-09-18T07:08:56;5.93;;;4.85;;
4078;SDS011;2054;47.858;11.156;2023-09-18T07:11:24;9.63;;;4.90;;
4078;SDS011;2054;47.858;11.156;2023-09-18T07:13:51;8.18;;;4.25;;
4078;SDS011;2054;47.858;11.156;2023-09-18T07:16:19;10.63;;;5.18;;
4078;SDS011;2054;47.858;11.156;2023-09-18T07:18:46;11.90;;;5.28;;
4078;SDS011;2054;47.858;11.156;2023-09-18T07:21:15;5.90;;;3.72;;
4078;SDS011;2054;47.858;11.156;2023-09-18T07:23:42;9.90;;;4.47;;
4078;SDS011;2054;47.858;11.156;2023-09-18T07:26:10;7.20;;;4.13;;
4078;SDS011;2054;47.858;11.156;2023-09-18T07:28:37;9.35;;;4.07;;
4078;SDS011;2054;47.858;11.156;2023-09-18T07:31:05;5.60;;;3.63;;
4078;SDS011;2054;47.858;11.156;2023-09-18T07:33:34;6.43;;;3.72;;
4078;SDS011;2054;47.858;11.156;2023-09-18T07:36:01;9.38;;;3.95;;
4078;SDS011;2054;47.858;11.156;2023-09-18T07:38:30;12.13;;;3.50;;
4078;SDS011;2054;47.858;11.156;2023-09-18T07:40:57;11.05;;;3.45;;
4078;SDS011;2054;47.858;11.156;2023-09-18T07:43:24;12.27;;;3.35;;
4078;SDS011;2054;47.858;11.156;2023-09-18T07:45:52;7.00;;;3.40;;
4078;SDS011;2054;47.858;11.156;2023-09-18T07:48:19;6.55;;;3.97;;
4078;SDS011;2054;47.858;11.156;2023-09-18T07:50:47;8.32;;;3.63;;
4078;SDS011;2054;47.858;11.156;2023-09-18T07:53:14;10.20;;;3.55;;
4078;SDS011;2054;47.858;11.156;2023-09-18T07:55:43;8.55;;;3.67;;
4078;SDS011;2054;47.858;11.156;2023-09-18T07:58:10;10.23;;;3.70;;
4078;SDS011;2054;47.858;11.156;2023-09-18T08:00:38;4.45;;;3.10;;
4078;SDS011;2054;47.858;11.156;2023-09-18T08:03:05;5.82;;;3.40;;
4078;SDS011;2054;47.858;11.156;2023-09-18T08:05:32;8.40;;;3.53;;
4078;SDS011;2054;47.858;11.156;2023-09-18T08:07:59;8.35;;;3.70;;
4078;SDS011;2054;47.858;11.156;2023-09-18T08:10:30;8.50;;;3.80;;
4078;SDS011;2054;47.858;11.156;2023-09-18T08:12:58;12.48;;;3.50;;
4078;SDS011;2054;47.858;11.156;2023-09-18T08:15:25;7.90;;;3.28;;
4078;SDS011;2054;47.858;11.156;2023-09-18T08:17:53;10.02;;;4.10;;
4078;SDS011;2054;47.858;11.156;2023-09-18T08:20:20;12.40;;;3.75;;
4078;SDS011;2054;47.858;11.156;2023-09-18T08:22:47;8.73;;;4.13;;
4078;SDS011;2054;47.858;11.156;2023-09-18T08:25:15;18.08;;;5.75;;
4078;SDS011;2054;47.858;11.156;2023-09-18T08:27:42;15.60;;;5.50;;
4078;SDS011;2054;47.858;11.156;2023-09-18T08:30:11;20.60;;;7.03;;
4078;SDS011;2054;47.858;11.156;2023-09-18T08:32:39;18.40;;;6.15;;
4078;SDS011;2054;47.858;11.156;2023-09-18T08:35:07;17.48;;;5.40;;
4078;SDS011;2054;47.858;11.156;2023-09-18T08:37:37;10.25;;;4.05;;
4078;SDS011;2054;47.858;11.156;2023-09-18T08:40:04;12.82;;;3.47;;
4078;SDS011;2054;47.858;11.156;2023-09-18T08:42:34;12.75;;;4.03;;
4078;SDS011;2054;47.858;11.156;2023-09-18T08:45:05;11.98;;;3.63;;
4078;SDS011;2054;47.858;11.156;2023-09-18T08:47:37;13.07;;;3.50;;
4078;SDS011;2054;47.858;11.156;2023-09-18T08:50:05;11.77;;;3.60;;
4078;SDS011;2054;47.858;11.156;2023-09-18T08:52:34;9.73;;;3.58;;
4078;SDS011;2054;47.858;11.156;2023-09-18T08:55:02;16.67;;;3.63;;
4078;SDS011;2054;47.858;11.156;2023-09-18T08:57:31;14.05;;;3.70;;
4078;SDS011;2054;47.858;11.156;2023-09-18T09:00:02;13.85;;;3.67;;
4078;SDS011;2054;47.858;11.156;2023-09-18T09:02:32;10.90;;;3.13;;
4078;SDS011;2054;47.858;11.156;2023-09-18T09:05:01;8.52;;;2.97;;
4078;SDS011;2054;47.858;11.156;2023-09-18T09:07:28;11.48;;;3.55;;
4078;SDS011;2054;47.858;11.156;2023-09-18T09:09:56;11.43;;;3.50;;
4078;SDS011;2054;47.858;11.156;2023-09-18T09:15:15;11.13;;;3.55;;
4078;SDS011;2054;47.858;11.156;2023-09-18T09:17:42;11.40;;;3.47;;
4078;SDS011;2054;47.858;11.156;2023-09-18T09:20:11;12.88;;;3.95;;
4078;SDS011;2054;47.858;11.156;2023-09-18T09:22:39;9.77;;;3.60;;
4078;SDS011;2054;47.858;11.156;2023-09-18T09:25:21;12.18;;;3.67;;
4078;SDS011;2054;47.858;11.156;2023-09-18T09:27:49;10.23;;;4.45;;
4078;SDS011;2054;47.858;11.156;2023-09-18T09:30:19;10.32;;;2.95;;
4078;SDS011;2054;47.858;11.156;2023-09-18T09:32:47;13.63;;;4.22;;
4078;SDS011;2054;47.858;11.156;2023-09-18T09:35:30;13.15;;;3.63;;
4078;SDS011;2054;47.858;11.156;2023-09-18T09:37:59;9.35;;;3.50;;
4078;SDS011;2054;47.858;11.156;2023-09-18T09:40:28;10.20;;;3.15;;
4078;SDS011;2054;47.858;11.156;2023-09-18T09:42:56;7.70;;;3.30;;
4078;SDS011;2054;47.858;11.156;2023-09-18T09:45:27;8.05;;;3.17;;
4078;SDS011;2054;47.858;11.156;2023-09-18T09:47:56;11.93;;;3.55;;
4078;SDS011;2054;47.858;11.156;2023-09-18T09:50:24;10.63;;;3.28;;
4078;SDS011;2054;47.858;11.156;2023-09-18T09:52:52;13.95;;;3.20;;
4078;SDS011;2054;47.858;11.156;2023-09-18T09:55:21;10.52;;;2.75;;
4078;SDS011;2054;47.858;11.156;2023-09-18T09:57:51;13.80;;;3.40;;
4078;SDS011;2054;47.858;11.156;2023-09-18T10:00:24;14.88;;;3.25;;
4078;SDS011;2054;47.858;11.156;2023-09-18T10:02:57;7.47;;;3.10;;
4078;SDS011;2054;47.858;11.156;2023-09-18T10:05:28;10.20;;;3.20;;
4078;SDS011;2054;47.858;11.156;2023-09-18T10:07:58;13.35;;;3.17;;
4078;SDS011;2054;47.858;11.156;2023-09-18T10:10:30;11.95;;;2.88;;
4078;SDS011;2054;47.858;11.156;2023-09-18T10:13:00;13.02;;;3.28;;
4078;SDS011;2054;47.858;11.156;2023-09-18T10:15:34;9.02;;;2.97;;
4078;SDS011;2054;47.858;11.156;2023-09-18T10:18:04;10.45;;;3.13;;
4078;SDS011;2054;47.858;11.156;2023-09-18T10:20:40;9.73;;;3.10;;
4078;SDS011;2054;47.858;11.156;2023-09-18T10:23:12;13.43;;;3.15;;
4078;SDS011;2054;47.858;11.156;2023-09-18T10:25:50;13.80;;;3.28;;
4078;SDS011;2054;47.858;11.156;2023-09-18T10:28:23;8.60;;;2.85;;
4078;SDS011;2054;47.858;11.156;2023-09-18T10:30:52;10.60;;;2.90;;
4078;SDS011;2054;47.858;11.156;2023-09-18T10:33:22;8.13;;;2.75;;
4078;SDS011;2054;47.858;11.156;2023-09-18T10:35:51;7.88;;;2.50;;
4078;SDS011;2054;47.858;11.156;2023-09-18T10:38:19;8.70;;;2.63;;
4078;SDS011;2054;47.858;11.156;2023-09-18T10:40:47;13.77;;;2.35;;
4078;SDS011;2054;47.858;11.156;2023-09-18T10:43:15;6.57;;;2.25;;
4078;SDS011;2054;47.858;11.156;2023-09-18T10:45:43;7.97;;;2.67;;
4078;SDS011;2054;47.858;11.156;2023-09-18T10:48:11;8.45;;;2.15;;
4078;SDS011;2054;47.858;11.156;2023-09-18T10:50:39;7.28;;;2.20;;
4078;SDS011;2054;47.858;11.156;2023-09-18T10:53:09;6.68;;;1.90;;
4078;SDS011;2054;47.858;11.156;2023-09-18T10:55:36;3.15;;;1.60;;
4078;SDS011;2054;47.858;11.156;2023-09-18T10:58:04;6.57;;;1.92;;
4078;SDS011;2054;47.858;11.156;2023-09-18T11:00:31;3.80;;;1.58;;
4078;SDS011;2054;47.858;11.156;2023-09-18T11:03:11;6.47;;;1.70;;
4078;SDS011;2054;47.858;11.156;2023-09-18T11:05:39;4.43;;;1.60;;
4078;SDS011;2054;47.858;11.156;2023-09-18T11:08:42;5.90;;;1.55;;
4078;SDS011;2054;47.858;11.156;2023-09-18T11:11:11;3.85;;;1.50;;
4078;SDS011;2054;47.858;11.156;2023-09-18T11:13:40;10.70;;;2.25;;
4078;SDS011;2054;47.858;11.156;2023-09-18T11:16:15;2.47;;;1.58;;
4078;SDS011;2054;47.858;11.156;2023-09-18T11:18:45;3.17;;;1.63;;
4078;SDS011;2054;47.858;11.156;2023-09-18T11:21:14;8.43;;;2.45;;
4078;SDS011;2054;47.858;11.156;2023-09-18T11:23:44;7.80;;;1.70;;
4078;SDS011;2054;47.858;11.156;2023-09-18T11:26:11;4.03;;;1.80;;
4078;SDS011;2054;47.858;11.156;2023-09-18T11:28:41;4.40;;;1.40;;
4078;SDS011;2054;47.858;11.156;2023-09-18T11:31:09;6.57;;;1.88;;
4078;SDS011;2054;47.858;11.156;2023-09-18T11:33:37;3.50;;;1.48;;
4078;SDS011;2054;47.858;11.156;2023-09-18T11:36:06;4.53;;;1.58;;
4078;SDS011;2054;47.858;11.156;2023-09-18T11:41:24;2.30;;;1.58;;
4078;SDS011;2054;47.858;11.156;2023-09-18T11:43:52;3.50;;;1.70;;
4078;SDS011;2054;47.858;11.156;2023-09-18T11:46:45;3.80;;;1.60;;
4078;SDS011;2054;47.858;11.156;2023-09-18T11:49:13;4.20;;;1.30;;
4078;SDS011;2054;47.858;11.156;2023-09-18T11:51:41;3.70;;;1.67;;
4078;SDS011;2054;47.858;11.156;2023-09-18T11:54:10;4.50;;;1.52;;
4078;SDS011;2054;47.858;11.156;2023-09-18T11:56:37;3.58;;;1.48;;
4078;SDS011;2054;47.858;11.156;2023-09-18T11:59:06;5.88;;;1.23;;
4078;SDS011;2054;47.858;11.156;2023-09-18T12:01:33;4.07;;;1.40;;
4078;SDS011;2054;47.858;11.156;2023-09-18T12:04:01;3.80;;;1.50;;
4078;SDS011;2054;47.858;11.156;2023-09-18T12:06:32;1.98;;;1.20;;
4078;SDS011;2054;47.858;11.156;2023-09-18T12:09:00;7.63;;;1.70;;
4078;SDS011;2054;47.858;11.156;2023-09-18T12:11:30;2.20;;;1.23;;
4078;SDS011;2054;47.858;11.156;2023-09-18T12:13:57;3.03;;;1.27;;
4078;SDS011;2054;47.858;11.156;2023-09-18T12:16:24;1.95;;;1.23;;
4078;SDS011;2054;47.858;11.156;2023-09-18T12:18:52;2.08;;;1.48;;
4078;SDS011;2054;47.858;11.156;2023-09-18T12:21:19;2.45;;;1.50;;
4078;SDS011;2054;47.858;11.156;2023-09-18T12:23:46;3.17;;;1.42;;
4078;SDS011;2054;47.858;11.156;2023-09-18T12:26:13;2.72;;;1.33;;
4078;SDS011;2054;47.858;11.156;2023-09-18T12:28:44;1.20;;;1.10;;
4078;SDS011;2054;47.858;11.156;2023-09-18T12:31:12;2.78;;;1.50;;
4078;SDS011;2054;47.858;11.156;2023-09-18T12:33:39;4.57;;;1.60;;
4078;SDS011;2054;47.858;11.156;2023-09-18T12:36:09;3.72;;;2.17;;
4078;SDS011;2054;47.858;11.156;2023-09-18T12:38:39;4.70;;;1.60;;
4078;SDS011;2054;47.858;11.156;2023-09-18T12:41:06;2.63;;;1.52;;
4078;SDS011;2054;47.858;11.156;2023-09-18T12:43:35;2.38;;;1.20;;
4078;SDS011;2054;47.858;11.156;2023-09-18T12:46:06;2.53;;;1.30;;
4078;SDS011;2054;47.858;11.156;2023-09-18T12:48:36;1.88;;;0.90;;
4078;SDS011;2054;47.858;11.156;2023-09-18T12:51:04;2.60;;;1.25;;
4078;SDS011;2054;47.858;11.156;2023-09-18T12:53:31;2.80;;;1.38;;
4078;SDS011;2054;47.858;11.156;2023-09-18T12:56:06;1.40;;;1.13;;
4078;SDS011;2054;47.858;11.156;2023-09-18T12:58:34;2.17;;;1.10;;
4078;SDS011;2054;47.858;11.156;2023-09-18T13:01:03;2.30;;;1.10;;
4078;SDS011;2054;47.858;11.156;2023-09-18T13:03:34;1.95;;;1.00;;
4078;SDS011;2054;47.858;11.156;2023-09-18T13:06:08;2.05;;;1.33;;
4078;SDS011;2054;47.858;11.156;2023-09-18T13:08:36;2.03;;;1.10;;
4078;SDS011;2054;47.858;11.156;2023-09-18T13:11:03;3.33;;;1.10;;
4078;SDS011;2054;47.858;11.156;2023-09-18T13:13:31;2.13;;;1.15;;
4078;SDS011;2054;47.858;11.156;2023-09-18T13:15:59;2.45;;;1.25;;
4078;SDS011;2054;47.858;11.156;2023-09-18T13:18:30;1.23;;;0.80;;
4078;SDS011;2054;47.858;11.156;2023-09-18T13:20:57;1.80;;;0.90;;
4078;SDS011;2054;47.858;11.156;2023-09-18T13:23:27;2.03;;;0.98;;
4078;SDS011;2054;47.858;11.156;2023-09-18T13:25:58;2.83;;;1.17;;
4078;SDS011;2054;47.858;11.156;2023-09-18T13:28:26;2.35;;;1.08;;
4078;SDS011;2054;47.858;11.156;2023-09-18T13:30:56;3.13;;;1.00;;
4078;SDS011;2054;47.858;11.156;2023-09-18T13:33:23;2.22;;;1.00;;
4078;SDS011;2054;47.858;11.156;2023-09-18T13:35:52;1.33;;;0.88;;
4078;SDS011;2054;47.858;11.156;2023-09-18T13:38:21;2.50;;;1.25;;
4078;SDS011;2054;47.858;11.156;2023-09-18T13:40:48;1.83;;;1.00;;
4078;SDS011;2054;47.858;11.156;2023-09-18T13:43:15;2.25;;;1.00;;
4078;SDS011;2054;47.858;11.156;2023-09-18T13:45:44;2.00;;;1.02;;
4078;SDS011;2054;47.858;11.156;2023-09-18T13:48:11;2.95;;;0.93;;
4078;SDS011;2054;47.858;11.156;2023-09-18T13:50:40;1.92;;;0.80;;
4078;SDS011;2054;47.858;11.156;2023-09-18T13:53:09;1.05;;;0.80;;
4078;SDS011;2054;47.858;11.156;2023-09-18T13:55:35;2.03;;;1.92;;
4078;SDS011;2054;47.858;11.156;2023-09-18T13:58:03;2.25;;;1.30;;
4078;SDS011;2054;47.858;11.156;2023-09-18T14:00:30;2.53;;;1.17;;
4078;SDS011;2054;47.858;11.156;2023-09-18T14:02:57;0.82;;;0.80;;
4078;SDS011;2054;47.858;11.156;2023-09-18T14:05:24;1.50;;;1.00;;
4078;SDS011;2054;47.858;11.156;2023-09-18T14:07:53;1.80;;;0.88;;
4078;SDS011;2054;47.858;11.156;2023-09-18T14:10:26;1.25;;;0.88;;
4078;SDS011;2054;47.858;11.156;2023-09-18T14:12:53;0.73;;;0.73;;
4078;SDS011;2054;47.858;11.156;2023-09-18T14:15:22;1.80;;;0.93;;
4078;SDS011;2054;47.858;11.156;2023-09-18T14:17:49;1.00;;;0.90;;
4078;SDS011;2054;47.858;11.156;2023-09-18T14:20:16;1.42;;;1.13;;
4078;SDS011;2054;47.858;11.156;2023-09-18T14:22:45;1.38;;;1.10;;
4078;SDS011;2054;47.858;11.156;2023-09-18T14:25:14;1.65;;;0.95;;
4078;SDS011;2054;47.858;11.156;2023-09-18T14:27:43;1.05;;;0.90;;
4078;SDS011;2054;47.858;11.156;2023-09-18T14:30:10;1.52;;;1.25;;
4078;SDS011;2054;47.858;11.156;2023-09-18T14:32:39;2.35;;;1.00;;
4078;SDS011;2054;47.858;11.156;2023-09-18T14:35:07;2.15;;;1.20;;
4078;SDS011;2054;47.858;11.156;2023-09-18T14:37:34;1.88;;;0.88;;
4078;SDS011;2054;47.858;11.156;2023-09-18T14:40:01;1.23;;;0.98;;
4078;SDS011;2054;47.858;11.156;2023-09-18T14:42:28;2.35;;;1.13;;
4078;SDS011;2054;47.858;11.156;2023-09-18T14:44:57;2.42;;;1.00;;
4078;SDS011;2054;47.858;11.156;2023-09-18T14:47:26;0.90;;;0.90;;
4078;SDS011;2054;47.858;11.156;2023-09-18T14:49:54;1.63;;;1.00;;
4078;SDS011;2054;47.858;11.156;2023-09-18T14:52:23;1.35;;;0.95;;
4078;SDS011;2054;47.858;11.156;2023-09-18T14:54:50;1.85;;;0.90;;
4078;SDS011;2054;47.858;11.156;2023-09-18T14:57:17;1.08;;;0.80;;
4078;SDS011;2054;47.858;11.156;2023-09-18T14:59:44;3.00;;;0.80;;
4078;SDS011;2054;47.858;11.156;2023-09-18T15:02:14;1.70;;;1.00;;
4078;SDS011;2054;47.858;11.156;2023-09-18T15:04:42;1.20;;;0.90;;
4078;SDS011;2054;47.858;11.156;2023-09-18T15:07:10;0.90;;;0.90;;
4078;SDS011;2054;47.858;11.156;2023-09-18T15:09:38;3.95;;;1.00;;
4078;SDS011;2054;47.858;11.156;2023-09-18T15:12:06;1.38;;;1.27;;
4078;SDS011;2054;47.858;11.156;2023-09-18T15:14:33;1.10;;;0.90;;
4078;SDS011;2054;47.858;11.156;2023-09-18T15:17:01;2.47;;;1.17;;
4078;SDS011;2054;47.858;11.156;2023-09-18T15:19:29;1.00;;;0.90;;
4078;SDS011;2054;47.858;11.156;2023-09-18T15:21:58;1.60;;;1.08;;
4078;SDS011;2054;47.858;11.156;2023-09-18T15:24:28;4.53;;;0.98;;
4078;SDS011;2054;47.858;11.156;2023-09-18T15:26:54;2.13;;;1.00;;
4078;SDS011;2054;47.858;11.156;2023-09-18T15:29:22;1.20;;;1.08;;
4078;SDS011;2054;47.858;11.156;2023-09-18T15:31:49;2.92;;;1.17;;
4078;SDS011;2054;47.858;11.156;2023-09-18T15:34:16;1.08;;;0.90;;
4078;SDS011;2054;47.858;11.156;2023-09-18T15:36:44;1.80;;;0.82;;
4078;SDS011;2054;47.858;11.156;2023-09-18T15:39:11;3.15;;;0.90;;
4078;SDS011;2054;47.858;11.156;2023-09-18T15:41:38;2.10;;;0.85;;
4078;SDS011;2054;47.858;11.156;2023-09-18T15:44:05;0.77;;;0.77;;
4078;SDS011;2054;47.858;11.156;2023-09-18T15:46:35;0.60;;;0.60;;
4078;SDS011;2054;47.858;11.156;2023-09-18T15:49:02;0.85;;;0.77;;
4078;SDS011;2054;47.858;11.156;2023-09-18T15:51:29;3.25;;;1.10;;
4078;SDS011;2054;47.858;11.156;2023-09-18T15:53:57;1.50;;;0.90;;
4078;SDS011;2054;47.858;11.156;2023-09-18T15:56:24;1.83;;;0.98;;
4078;SDS011;2054;47.858;11.156;2023-09-18T15:58:51;1.98;;;0.90;;
4078;SDS011;2054;47.858;11.156;2023-09-18T16:01:18;1.77;;;0.98;;
4078;SDS011;2054;47.858;11.156;2023-09-18T16:03:45;1.15;;;0.63;;
4078;SDS011;2054;47.858;11.156;2023-09-18T16:06:13;0.93;;;0.80;;
4078;SDS011;2054;47.858;11.156;2023-09-18T16:08:41;0.98;;;0.80;;
4078;SDS011;2054;47.858;11.156;2023-09-18T16:11:10;1.65;;;0.70;;
4078;SDS011;2054;47.858;11.156;2023-09-18T16:13:40;0.88;;;0.80;;
4078;SDS011;2054;47.858;11.156;2023-09-18T16:16:07;2.65;;;0.98;;
4078;SDS011;2054;47.858;11.156;2023-09-18T16:18:33;1.35;;;0.85;;
4078;SDS011;2054;47.858;11.156;2023-09-18T16:21:00;2.55;;;0.85;;
4078;SDS011;2054;47.858;11.156;2023-09-18T16:23:27;1.13;;;0.88;;
4078;SDS011;2054;47.858;11.156;2023-09-18T16:25:54;1.35;;;0.90;;
4078;SDS011;2054;47.858;11.156;2023-09-18T16:28:23;1.15;;;1.00;;
4078;SDS011;2054;47.858;11.156;2023-09-18T16:30:50;1.75;;;1.00;;
4078;SDS011;2054;47.858;11.156;2023-09-18T16:33:17;0.88;;;0.88;;
4078;SDS011;2054;47.858;11.156;2023-09-18T16:35:44;2.42;;;1.05;;
4078;SDS011;2054;47.858;11.156;2023-09-18T16:38:12;1.35;;;0.90;;
4078;SDS011;2054;47.858;11.156;2023-09-18T16:40:39;2.25;;;1.00;;
4078;SDS011;2054;47.858;11.156;2023-09-18T16:43:06;1.48;;;1.02;;
4078;SDS011;2054;47.858;11.156;2023-09-18T16:45:35;2.75;;;0.90;;
4078;SDS011;2054;47.858;11.156;2023-09-18T16:48:02;2.47;;;1.10;;
4078;SDS011;2054;47.858;11.156;2023-09-18T16:50:30;2.92;;;1.20;;
4078;SDS011;2054;47.858;11.156;2023-09-18T16:52:57;2.00;;;1.50;;
4078;SDS011;2054;47.858;11.156;2023-09-18T16:55:24;1.38;;;1.13;;
4078;SDS011;2054;47.858;11.156;2023-09-18T16:57:51;2.78;;;1.50;;
4078;SDS011;2054;47.858;11.156;2023-09-18T17:00:18;2.65;;;1.08;;
4078;SDS011;2054;47.858;11.156;2023-09-18T17:02:46;1.75;;;1.23;;
4078;SDS011;2054;47.858;11.156;2023-09-18T17:05:13;8.05;;;1.45;;
4078;SDS011;2054;47.858;11.156;2023-09-18T17:07:40;1.83;;;1.20;;
4078;SDS011;2054;47.858;11.156;2023-09-18T17:10:08;2.22;;;1.27;;
4078;SDS011;2054;47.858;11.156;2023-09-18T17:12:35;4.13;;;1.40;;
4078;SDS011;2054;47.858;11.156;2023-09-18T17:15:03;3.38;;;1.30;;
4078;SDS011;2054;47.858;11.156;2023-09-18T17:17:33;3.10;;;1.30;;
4078;SDS011;2054;47.858;11.156;2023-09-18T17:20:01;1.30;;;1.08;;
4078;SDS011;2054;47.858;11.156;2023-09-18T17:22:29;2.22;;;1.25;;
4078;SDS011;2054;47.858;11.156;2023-09-18T17:24:57;2.00;;;1.23;;
4078;SDS011;2054;47.858;11.156;2023-09-18T17:27:24;2.85;;;1.60;;
4078;SDS011;2054;47.858;11.156;2023-09-18T17:29:51;2.35;;;1.63;;
4078;SDS011;2054;47.858;11.156;2023-09-18T17:32:19;3.60;;;1.63;;
4078;SDS011;2054;47.858;11.156;2023-09-18T17:34:46;3.47;;;1.83;;
4078;SDS011;2054;47.858;11.156;2023-09-18T17:37:14;2.65;;;1.42;;
4078;SDS011;2054;47.858;11.156;2023-09-18T17:39:41;1.60;;;1.00;;
4078;SDS011;2054;47.858;11.156;2023-09-18T17:42:08;1.92;;;1.23;;
4078;SDS011;2054;47.858;11.156;2023-09-18T17:44:35;1.90;;;1.33;;
4078;SDS011;2054;47.858;11.156;2023-09-18T17:47:02;3.65;;;1.70;;
4078;SDS011;2054;47.858;11.156;2023-09-18T17:49:31;2.25;;;1.88;;
4078;SDS011;2054;47.858;11.156;2023-09-18T17:52:00;2.38;;;1.55;;
4078;SDS011;2054;47.858;11.156;2023-09-18T17:54:32;2.05;;;1.42;;